PWSweather.com
Personal Weather Stations
Station Observations

KentGB

Lat: 51.355058, Lon: 1.256518

Elevation: 24

Station Type: Davis

http://stnichweather.co.uk

High Low Average
Temperature 63.6°F17.6°F 44.9°F7.2°F 54.1°F12.3°F
Dew Point 53.6°F12.0°F 41.3°F5.2°F 47.9°F8.8°F
Winds 10.4 mph SSW16.7 mph SSW Calm Calm 2.2 mph 3.5 mph
Wind Gusts 16.1 mph25.9 mph -- 4.3 mph6.9 mph
Humidity 93% 63% 80%
Pressure 30.15 in1021.00 in 30.03 in1016.90 in -
Precipitation 0.00 in0.00 in - -
Hour Temp Dew Point Humidity Winds Wind Gusts Pressure Precip Precip Rate Daily Precip Total
12:00 AM 45.7°F7.6°C 42.1°F5.6°C 87% Calm Calm -- 30.15 in1021.0 mb - 0.00 in0.0 mm 0.00 in0.0 mm
12:15 AM 45.8°F7.7°C 43.9°F6.6°C 93% Calm Calm -- 30.15 in1021.0 mb - 0.00 in0.0 mm 0.00 in0.0 mm
12:30 AM 45.5°F7.5°C 43.6°F6.4°C 93% Calm Calm -- 30.15 in1021.0 mb - 0.00 in0.0 mm 0.00 in0.0 mm
12:45 AM 45.8°F7.7°C 43.9°F6.6°C 93% Calm Calm -- 30.15 in1021.0 mb - 0.00 in0.0 mm 0.00 in0.0 mm
01:00 AM 45.5°F7.5°C 43.6°F6.4°C 93% Calm Calm -- 30.15 in1021.0 mb - 0.00 in0.0 mm 0.00 in0.0 mm
01:15 AM 45.6°F7.6°C 43.7°F6.5°C 93% Calm Calm -- 30.15 in1021.0 mb - 0.00 in0.0 mm 0.00 in0.0 mm
01:30 AM 45.5°F7.5°C 43.6°F6.4°C 93% Calm Calm -- 30.15 in1021.0 mb - 0.00 in0.0 mm 0.00 in0.0 mm
01:45 AM 45.2°F7.3°C 43.3°F6.3°C 93% Calm Calm -- 30.15 in1021.0 mb - 0.00 in0.0 mm 0.00 in0.0 mm
02:00 AM 45.4°F7.4°C 43.5°F6.4°C 93% Calm Calm 1.2 mph1.9 kmh 30.15 in1021.0 mb - 0.00 in0.0 mm 0.00 in0.0 mm
02:15 AM 45.3°F7.4°C 43.4°F6.3°C 93% Calm Calm 1.2 mph1.9 kmh 30.12 in1020.0 mb - 0.00 in0.0 mm 0.00 in0.0 mm
02:30 AM 45.4°F7.4°C 43.5°F6.4°C 93% Calm Calm 1.2 mph1.9 kmh 30.12 in1020.0 mb - 0.00 in0.0 mm 0.00 in0.0 mm
02:45 AM 45.4°F7.4°C 43.5°F6.4°C 93% Calm Calm -- 30.12 in1020.0 mb - 0.00 in0.0 mm 0.00 in0.0 mm
03:00 AM 45.3°F7.4°C 43.4°F6.3°C 93% Calm Calm -- 30.12 in1020.0 mb - 0.00 in0.0 mm 0.00 in0.0 mm
03:15 AM 45.4°F7.4°C 43.5°F6.4°C 93% Calm Calm 1.2 mph1.9 kmh 30.12 in1020.0 mb - 0.00 in0.0 mm 0.00 in0.0 mm
03:30 AM 45.3°F7.4°C 43.4°F6.3°C 93% Calm Calm -- 30.12 in1020.0 mb - 0.00 in0.0 mm 0.00 in0.0 mm
03:45 AM 45.2°F7.3°C 43.3°F6.3°C 93% Calm Calm -- 30.12 in1020.0 mb - 0.00 in0.0 mm 0.00 in0.0 mm
04:00 AM 45.5°F7.5°C 43.6°F6.4°C 93% 1.2 mph WNW1.9 kmh WNW 2.3 mph3.7 kmh 30.12 in1020.0 mb - 0.00 in0.0 mm 0.00 in0.0 mm
04:15 AM 45.6°F7.6°C 41.9°F5.5°C 87% Calm Calm -- 30.12 in1020.0 mb - 0.00 in0.0 mm 0.00 in0.0 mm
04:30 AM 45.4°F7.4°C 41.7°F5.4°C 87% Calm Calm -- 30.12 in1020.0 mb - 0.00 in0.0 mm 0.00 in0.0 mm
04:45 AM 45.1°F7.3°C 41.5°F5.3°C 87% Calm Calm -- 30.12 in1020.0 mb - 0.00 in0.0 mm 0.00 in0.0 mm
05:00 AM 44.9°F7.2°C 41.3°F5.2°C 87% 1.2 mph WSW1.9 kmh WSW 3.5 mph5.6 kmh 30.12 in1020.0 mb - 0.00 in0.0 mm 0.00 in0.0 mm
05:15 AM 45.3°F7.4°C 41.6°F5.3°C 87% Calm Calm -- 30.12 in1020.0 mb - 0.00 in0.0 mm 0.00 in0.0 mm
05:30 AM 45.7°F7.6°C 42.1°F5.6°C 87% Calm Calm -- 30.12 in1020.0 mb - 0.00 in0.0 mm 0.00 in0.0 mm
05:45 AM 45.9°F7.7°C 42.3°F5.7°C 87% Calm Calm -- 30.12 in1020.0 mb - 0.00 in0.0 mm 0.00 in0.0 mm
06:00 AM 46.1°F7.8°C 42.5°F5.8°C 87% Calm Calm -- 30.12 in1020.0 mb - 0.00 in0.0 mm 0.00 in0.0 mm
06:15 AM 46.7°F8.2°C 43.1°F6.2°C 87% Calm Calm -- 30.12 in1020.0 mb - 0.00 in0.0 mm 0.00 in0.0 mm
06:30 AM 46.9°F8.3°C 43.2°F6.2°C 87% Calm Calm -- 30.12 in1020.0 mb - 0.00 in0.0 mm 0.00 in0.0 mm
06:45 AM 48.5°F9.2°C 44.8°F7.1°C 87% 1.2 mph SW1.9 kmh SW 3.5 mph5.6 kmh 30.09 in1019.0 mb - 0.00 in0.0 mm 0.00 in0.0 mm
07:00 AM 48.8°F9.3°C 45.1°F7.3°C 87% Calm Calm -- 30.09 in1019.0 mb - 0.00 in0.0 mm 0.00 in0.0 mm
07:15 AM 49.7°F9.8°C 46.0°F7.8°C 87% Calm Calm -- 30.09 in1019.0 mb - 0.00 in0.0 mm 0.00 in0.0 mm
07:30 AM 50.6°F10.3°C 46.9°F8.3°C 87% Calm Calm -- 30.09 in1019.0 mb - 0.00 in0.0 mm 0.00 in0.0 mm
07:45 AM 51.6°F10.9°C 49.6°F9.8°C 93% Calm Calm -- 30.09 in1019.0 mb - 0.00 in0.0 mm 0.00 in0.0 mm
08:00 AM 52.6°F11.4°C 50.7°F10.4°C 93% Calm Calm -- 30.09 in1019.0 mb - 0.00 in0.0 mm 0.00 in0.0 mm
08:15 AM 53.8°F12.1°C 50.0°F10.0°C 87% Calm Calm -- 30.09 in1019.0 mb - 0.00 in0.0 mm 0.00 in0.0 mm
08:30 AM 54.9°F12.7°C 51.1°F10.6°C 87% 1.2 mph SSW1.9 kmh SSW 3.5 mph5.6 kmh 30.09 in1019.0 mb - 0.00 in0.0 mm 0.00 in0.0 mm
08:45 AM 56.1°F13.4°C 50.3°F10.2°C 81% 1.2 mph SW1.9 kmh SW 3.5 mph5.6 kmh 30.09 in1019.0 mb - 0.00 in0.0 mm 0.00 in0.0 mm
09:00 AM 57.6°F14.2°C 51.8°F11.0°C 81% 1.2 mph SW1.9 kmh SW 4.6 mph7.4 kmh 30.09 in1019.0 mb - 0.00 in0.0 mm 0.00 in0.0 mm
09:15 AM 59.4°F15.2°C 51.8°F11.0°C 76% 4.6 mph SW7.4 kmh SW 9.2 mph14.8 kmh 30.09 in1019.0 mb - 0.00 in0.0 mm 0.00 in0.0 mm
09:30 AM 59.6°F15.3°C 52.0°F11.1°C 76% 3.5 mph SW5.6 kmh SW 6.9 mph11.1 kmh 30.09 in1019.0 mb - 0.00 in0.0 mm 0.00 in0.0 mm
09:45 AM 59.7°F15.4°C 50.7°F10.4°C 72% 4.6 mph SW7.4 kmh SW 10.4 mph16.7 kmh 30.09 in1019.0 mb - 0.00 in0.0 mm 0.00 in0.0 mm
10:00 AM 60.9°F16.1°C 51.8°F11.0°C 72% 3.5 mph SW5.6 kmh SW 6.9 mph11.1 kmh 30.09 in1019.0 mb - 0.00 in0.0 mm 0.00 in0.0 mm
10:15 AM 61.4°F16.3°C 52.2°F11.2°C 72% 5.8 mph SW9.3 kmh SW 9.2 mph14.8 kmh 30.09 in1019.0 mb - 0.00 in0.0 mm 0.00 in0.0 mm
10:30 AM 61.6°F16.4°C 52.5°F11.4°C 72% 3.5 mph SW5.6 kmh SW 9.2 mph14.8 kmh 30.09 in1019.0 mb - 0.00 in0.0 mm 0.00 in0.0 mm
10:45 AM 61.8°F16.6°C 50.7°F10.4°C 67% 5.8 mph SW9.3 kmh SW 11.5 mph18.5 kmh 30.09 in1019.0 mb - 0.00 in0.0 mm 0.00 in0.0 mm
11:00 AM 62.3°F16.8°C 51.2°F10.7°C 67% 6.9 mph SW11.1 kmh SW 11.5 mph18.5 kmh 30.09 in1019.0 mb - 0.00 in0.0 mm 0.00 in0.0 mm
11:15 AM 63.0°F17.2°C 51.9°F11.1°C 67% 5.8 mph SSW9.3 kmh SSW 11.5 mph18.5 kmh 30.09 in1019.0 mb - 0.00 in0.0 mm 0.00 in0.0 mm
11:30 AM 63.6°F17.6°C 52.4°F11.3°C 67% 4.6 mph SW7.4 kmh SW 8.1 mph13.0 kmh 30.09 in1019.0 mb - 0.00 in0.0 mm 0.00 in0.0 mm
11:45 AM 63.6°F17.6°C 52.5°F11.4°C 67% 6.9 mph SW11.1 kmh SW 11.5 mph18.5 kmh 30.09 in1019.0 mb - 0.00 in0.0 mm 0.00 in0.0 mm
12:00 PM 62.8°F17.1°C 51.7°F10.9°C 67% 5.8 mph SW9.3 kmh SW 10.4 mph16.7 kmh 30.09 in1019.0 mb - 0.00 in0.0 mm 0.00 in0.0 mm
12:15 PM 63.4°F17.4°C 50.6°F10.3°C 63% 8.1 mph S13.0 kmh S 10.4 mph16.7 kmh 30.09 in1019.0 mb - 0.00 in0.0 mm 0.00 in0.0 mm
12:30 PM 62.9°F17.2°C 50.1°F10.1°C 63% 6.9 mph S11.1 kmh S 11.5 mph18.5 kmh 30.09 in1019.0 mb - 0.00 in0.0 mm 0.00 in0.0 mm
12:45 PM 62.8°F17.1°C 53.6°F12.0°C 72% 5.8 mph S9.3 kmh S 11.5 mph18.5 kmh 30.09 in1019.0 mb - 0.00 in0.0 mm 0.00 in0.0 mm
01:00 PM 61.1°F16.2°C 52.0°F11.1°C 72% 5.8 mph SSW9.3 kmh SSW 9.2 mph14.8 kmh 30.09 in1019.0 mb - 0.00 in0.0 mm 0.00 in0.0 mm
01:15 PM 60.8°F16.0°C 51.7°F10.9°C 72% 8.1 mph SW13.0 kmh SW 12.7 mph20.4 kmh 30.06 in1017.9 mb - 0.00 in0.0 mm 0.00 in0.0 mm
01:30 PM 60.9°F16.1°C 51.8°F11.0°C 72% 5.8 mph SW9.3 kmh SW 9.2 mph14.8 kmh 30.06 in1017.9 mb - 0.00 in0.0 mm 0.00 in0.0 mm
01:45 PM 60.4°F15.8°C 51.3°F10.7°C 72% 10.4 mph SSW16.7 kmh SSW 16.1 mph25.9 kmh 30.06 in1017.9 mb - 0.00 in0.0 mm 0.00 in0.0 mm
02:00 PM 59.0°F15.0°C 49.9°F9.9°C 72% 10.4 mph SSW16.7 kmh SSW 13.8 mph22.2 kmh 30.06 in1017.9 mb - 0.00 in0.0 mm 0.00 in0.0 mm
02:15 PM 58.4°F14.7°C 49.4°F9.7°C 72% 4.6 mph SW7.4 kmh SW 8.1 mph13.0 kmh 30.06 in1017.9 mb - 0.00 in0.0 mm 0.00 in0.0 mm
02:30 PM 58.8°F14.9°C 49.8°F9.9°C 72% 2.3 mph S3.7 kmh S 5.8 mph9.3 kmh 30.06 in1017.9 mb - 0.00 in0.0 mm 0.00 in0.0 mm
02:45 PM 59.3°F15.2°C 50.2°F10.1°C 72% 2.3 mph SW3.7 kmh SW 6.9 mph11.1 kmh 30.06 in1017.9 mb - 0.00 in0.0 mm 0.00 in0.0 mm
03:00 PM 59.8°F15.4°C 50.8°F10.4°C 72% 4.6 mph SW7.4 kmh SW 4.6 mph7.4 kmh 30.06 in1017.9 mb - 0.00 in0.0 mm 0.00 in0.0 mm
03:15 PM 60.1°F15.6°C 51.1°F10.6°C 72% 5.8 mph SW9.3 kmh SW 9.2 mph14.8 kmh 30.06 in1017.9 mb - 0.00 in0.0 mm 0.00 in0.0 mm
03:30 PM 60.4°F15.8°C 51.4°F10.8°C 72% 4.6 mph SW7.4 kmh SW 9.2 mph14.8 kmh 30.06 in1017.9 mb - 0.00 in0.0 mm 0.00 in0.0 mm
03:45 PM 61.2°F16.2°C 52.1°F11.2°C 72% 3.5 mph SW5.6 kmh SW 5.8 mph9.3 kmh 30.06 in1017.9 mb - 0.00 in0.0 mm 0.00 in0.0 mm
04:00 PM 61.8°F16.6°C 52.7°F11.5°C 72% 2.3 mph SSW3.7 kmh SSW 6.9 mph11.1 kmh 30.06 in1017.9 mb - 0.00 in0.0 mm 0.00 in0.0 mm
04:15 PM 61.8°F16.6°C 52.7°F11.5°C 72% 4.6 mph SSW7.4 kmh SSW 10.4 mph16.7 kmh 30.03 in1016.9 mb - 0.00 in0.0 mm 0.00 in0.0 mm
04:30 PM 61.1°F16.2°C 52.0°F11.1°C 72% 2.3 mph SW3.7 kmh SW 6.9 mph11.1 kmh 30.03 in1016.9 mb - 0.00 in0.0 mm 0.00 in0.0 mm
04:45 PM 61.1°F16.2°C 52.0°F11.1°C 72% 5.8 mph SSW9.3 kmh SSW 11.5 mph18.5 kmh 30.03 in1016.9 mb - 0.00 in0.0 mm 0.00 in0.0 mm
05:00 PM 61.6°F16.4°C 52.5°F11.4°C 72% 8.1 mph S13.0 kmh S 12.7 mph20.4 kmh 30.03 in1016.9 mb - 0.00 in0.0 mm 0.00 in0.0 mm
05:15 PM 61.0°F16.1°C 51.9°F11.1°C 72% 4.6 mph SSW7.4 kmh SSW 8.1 mph13.0 kmh 30.03 in1016.9 mb - 0.00 in0.0 mm 0.00 in0.0 mm
05:30 PM 60.2°F15.7°C 51.2°F10.7°C 72% 6.9 mph S11.1 kmh S 10.4 mph16.7 kmh 30.03 in1016.9 mb - 0.00 in0.0 mm 0.00 in0.0 mm
05:45 PM 59.6°F15.3°C 50.5°F10.3°C 72% 3.5 mph S5.6 kmh S 8.1 mph13.0 kmh 30.03 in1016.9 mb - 0.00 in0.0 mm 0.00 in0.0 mm
06:00 PM 58.8°F14.9°C 49.8°F9.9°C 72% 3.5 mph S5.6 kmh S 6.9 mph11.1 kmh 30.03 in1016.9 mb - 0.00 in0.0 mm 0.00 in0.0 mm
06:15 PM 57.9°F14.4°C 49.0°F9.4°C 72% 3.5 mph S5.6 kmh S 4.6 mph7.4 kmh 30.03 in1016.9 mb - 0.00 in0.0 mm 0.00 in0.0 mm
06:30 PM 57.3°F14.1°C 48.4°F9.1°C 72% 3.5 mph S5.6 kmh S 4.6 mph7.4 kmh 30.03 in1016.9 mb - 0.00 in0.0 mm 0.00 in0.0 mm
06:45 PM 56.7°F13.7°C 47.8°F8.8°C 72% Calm Calm 1.2 mph1.9 kmh 30.03 in1016.9 mb - 0.00 in0.0 mm 0.00 in0.0 mm
07:00 PM 56.2°F13.4°C 47.3°F8.5°C 72% 1.2 mph S1.9 kmh S 3.5 mph5.6 kmh 30.03 in1016.9 mb - 0.00 in0.0 mm 0.00 in0.0 mm
07:15 PM 55.8°F13.2°C 46.9°F8.3°C 72% Calm Calm 1.2 mph1.9 kmh 30.03 in1016.9 mb - 0.00 in0.0 mm 0.00 in0.0 mm
07:30 PM 55.3°F12.9°C 46.5°F8.1°C 72% 1.2 mph S1.9 kmh S 2.3 mph3.7 kmh 30.03 in1016.9 mb - 0.00 in0.0 mm 0.00 in0.0 mm
07:45 PM 55.2°F12.9°C 47.8°F8.8°C 76% Calm Calm 1.2 mph1.9 kmh 30.03 in1016.9 mb - 0.00 in0.0 mm 0.00 in0.0 mm
08:00 PM 54.6°F12.6°C 47.2°F8.4°C 76% Calm Calm 1.2 mph1.9 kmh 30.03 in1016.9 mb - 0.00 in0.0 mm 0.00 in0.0 mm
08:15 PM 54.2°F12.3°C 46.8°F8.2°C 76% Calm Calm 2.3 mph3.7 kmh 30.03 in1016.9 mb - 0.00 in0.0 mm 0.00 in0.0 mm
08:30 PM 53.7°F12.1°C 46.3°F7.9°C 76% Calm Calm -- 30.03 in1016.9 mb - 0.00 in0.0 mm 0.00 in0.0 mm
08:45 PM 52.9°F11.6°C 47.2°F8.4°C 81% Calm Calm -- 30.03 in1016.9 mb - 0.00 in0.0 mm 0.00 in0.0 mm
09:00 PM 52.6°F11.4°C 47.0°F8.3°C 81% Calm Calm -- 30.03 in1016.9 mb - 0.00 in0.0 mm 0.00 in0.0 mm
09:15 PM 52.3°F11.3°C 46.7°F8.2°C 81% Calm Calm -- 30.03 in1016.9 mb - 0.00 in0.0 mm 0.00 in0.0 mm
09:30 PM 52.7°F11.5°C 47.1°F8.4°C 81% Calm Calm 1.2 mph1.9 kmh 30.03 in1016.9 mb - 0.00 in0.0 mm 0.00 in0.0 mm
09:45 PM 52.6°F11.4°C 47.0°F8.3°C 81% Calm Calm -- 30.03 in1016.9 mb - 0.00 in0.0 mm 0.00 in0.0 mm
10:00 PM 52.6°F11.4°C 46.9°F8.3°C 81% Calm Calm 2.3 mph3.7 kmh 30.03 in1016.9 mb - 0.00 in0.0 mm 0.00 in0.0 mm
10:15 PM 52.6°F11.4°C 48.8°F9.3°C 87% 1.2 mph S1.9 kmh S 1.2 mph1.9 kmh 30.03 in1016.9 mb - 0.00 in0.0 mm 0.00 in0.0 mm
10:30 PM 52.3°F11.3°C 48.5°F9.2°C 87% Calm Calm 2.3 mph3.7 kmh 30.03 in1016.9 mb - 0.00 in0.0 mm 0.00 in0.0 mm
10:45 PM 52.7°F11.5°C 48.9°F9.4°C 87% 1.2 mph S1.9 kmh S 2.3 mph3.7 kmh 30.03 in1016.9 mb - 0.00 in0.0 mm 0.00 in0.0 mm
11:00 PM 52.6°F11.4°C 48.8°F9.3°C 87% 1.2 mph S1.9 kmh S 3.5 mph5.6 kmh 30.03 in1016.9 mb - 0.00 in0.0 mm 0.00 in0.0 mm
11:15 PM 52.2°F11.2°C 48.4°F9.1°C 87% Calm Calm 1.2 mph1.9 kmh 30.03 in1016.9 mb - 0.00 in0.0 mm 0.00 in0.0 mm
11:30 PM 52.1°F11.2°C 48.4°F9.1°C 87% 1.2 mph S1.9 kmh S 2.3 mph3.7 kmh 30.03 in1016.9 mb - 0.00 in0.0 mm 0.00 in0.0 mm
11:45 PM 52.0°F11.1°C 48.2°F9.0°C 87% 1.2 mph SSE1.9 kmh SSE 3.5 mph5.6 kmh 30.03 in1016.9 mb - 0.00 in0.0 mm 0.00 in0.0 mm